createdAt,value
2019-01-19T00:04:51.934Z,1.00
2019-01-19T00:10:53.343Z,2.53
2019-01-19T00:16:57.424Z,0.48
2019-01-19T00:22:46.742Z,2.31
2019-01-19T00:28:33.865Z,2.37
2019-01-19T00:34:35.219Z,2.13
2019-01-19T00:40:25.800Z,1.92
2019-01-19T00:46:27.333Z,1.81
2019-01-19T00:52:28.589Z,1.82
2019-01-19T00:58:29.855Z,1.87
2019-01-19T01:04:31.203Z,1.87
2019-01-19T01:10:10.464Z,0.24
2019-01-19T01:16:11.834Z,1.91
2019-01-19T01:22:13.373Z,1.97
2019-01-19T01:27:59.213Z,2.02
2019-01-19T01:34:00.467Z,1.89
2019-01-19T01:39:22.343Z,1.91
2019-01-19T01:45:26.756Z,2.07
2019-01-19T01:51:12.935Z,2.14
2019-01-19T01:56:16.253Z,2.11
2019-01-19T02:02:40.934Z,2.11
2019-01-19T02:08:16.563Z,1.26
2019-01-19T02:14:07.687Z,1.95
2019-01-19T02:20:09.346Z,0.18
2019-01-19T02:25:57.818Z,1.85
2019-01-19T02:32:01.023Z,1.07
2019-01-19T02:38:02.526Z,1.87
2019-01-19T02:43:16.215Z,1.81
2019-01-19T02:54:27.613Z,1.87
2019-01-19T03:00:12.866Z,1.85
2019-01-19T03:05:56.220Z,1.83
2019-01-19T03:11:57.412Z,-0.12
2019-01-19T03:17:58.574Z,1.89
2019-01-19T03:23:59.753Z,1.78
2019-01-19T03:29:48.432Z,1.77
2019-01-19T03:35:52.289Z,0.16
2019-01-19T03:41:46.680Z,-1.11
2019-01-19T03:47:28.324Z,1.67
2019-01-19T03:53:10.018Z,1.68
2019-01-19T03:59:11.236Z,1.70
2019-01-19T04:04:47.114Z,1.76
2019-01-19T04:10:49.553Z,1.69
2019-01-19T04:16:47.012Z,1.65
2019-01-19T04:22:49.235Z,0.03
2019-01-19T04:27:52.274Z,1.76
2019-01-19T04:33:14.657Z,1.80
2019-01-19T04:38:38.400Z,-0.71
2019-01-19T04:44:00.670Z,-0.18
2019-01-19T04:49:25.224Z,1.63
2019-01-19T04:54:28.125Z,1.45
2019-01-19T04:59:31.065Z,1.70
2019-01-19T05:04:47.466Z,1.66
2019-01-19T05:10:10.331Z,1.70
2019-01-19T05:15:33.272Z,1.74
2019-01-19T05:20:57.086Z,1.63
2019-01-19T05:26:19.520Z,1.60
2019-01-19T05:31:42.329Z,1.62
2019-01-19T05:37:04.880Z,1.66
2019-01-19T05:42:27.188Z,1.67
2019-01-19T05:47:50.573Z,1.46
2019-01-19T05:53:13.056Z,1.38
2019-01-19T05:58:35.375Z,1.38
2019-01-19T06:03:57.872Z,-0.30
2019-01-19T06:09:20.373Z,1.53
2019-01-19T06:14:45.991Z,1.57
2019-01-19T06:20:09.874Z,-0.90
2019-01-19T06:25:14.043Z,1.58
2019-01-19T06:35:46.382Z,1.46
2019-01-19T06:41:08.776Z,1.27
2019-01-19T06:46:31.380Z,1.25
2019-01-19T06:51:53.804Z,1.26
2019-01-19T06:57:16.107Z,1.17
2019-01-19T07:02:38.465Z,0.89
2019-01-19T07:07:41.360Z,1.31
2019-01-19T07:12:44.420Z,1.37
2019-01-19T07:17:47.248Z,1.48
2019-01-19T07:22:50.082Z,1.50
2019-01-19T07:28:12.420Z,1.54
2019-01-19T07:33:35.005Z,0.63
2019-01-19T07:38:57.341Z,0.62
2019-01-19T07:44:19.714Z,1.36
2019-01-19T07:49:42.379Z,1.49
2019-01-19T07:55:07.276Z,1.53
2019-01-19T08:00:34.987Z,-0.24
2019-01-19T08:05:50.323Z,1.66
2019-01-19T08:11:12.900Z,1.63
2019-01-19T08:16:15.908Z,1.78
2019-01-19T08:21:40.343Z,2.06
2019-01-19T08:27:02.677Z,1.93
2019-01-19T08:38:07.103Z,2.26
2019-01-19T08:43:48.989Z,2.59
2019-01-19T08:49:11.333Z,2.36
2019-01-19T08:54:14.789Z,2.63
2019-01-19T08:59:37.286Z,2.74
2019-01-19T09:04:53.012Z,3.03
2019-01-19T09:10:17.797Z,3.18
2019-01-19T09:15:40.136Z,3.31
2019-01-19T09:21:02.404Z,1.51
2019-01-19T09:26:24.830Z,1.63
2019-01-19T09:31:42.938Z,3.42
2019-01-19T09:37:05.335Z,3.59
2019-01-19T09:42:47.848Z,3.61
2019-01-19T09:48:10.253Z,3.63
2019-01-19T09:53:32.549Z,3.60
2019-01-19T09:58:55.351Z,3.71
2019-01-19T10:04:11.999Z,3.76
2019-01-19T10:09:14.695Z,3.81
2019-01-19T10:14:36.888Z,3.96
2019-01-19T10:19:39.583Z,3.98
2019-01-19T10:25:01.761Z,3.99
2019-01-19T10:30:24.859Z,4.30
2019-01-19T10:35:40.658Z,4.42
2019-01-19T10:41:02.819Z,4.57
2019-01-19T10:46:25.002Z,4.60
2019-01-19T10:51:47.186Z,4.67
2019-01-19T10:56:49.851Z,4.73
2019-01-19T11:02:12.039Z,4.93
2019-01-19T11:07:14.715Z,4.96
2019-01-19T11:12:17.391Z,5.00
2019-01-19T11:17:20.060Z,5.16
2019-01-19T11:22:42.230Z,5.02
2019-01-19T11:28:04.458Z,5.16
2019-01-19T11:33:26.646Z,5.41
2019-01-19T11:38:48.843Z,5.40
2019-01-19T11:44:11.033Z,5.59
2019-01-19T11:49:33.213Z,5.77
2019-01-19T11:54:55.482Z,5.84
2019-01-19T12:00:19.378Z,6.03
2019-01-19T12:05:34.395Z,6.28
2019-01-19T12:10:56.683Z,6.42
2019-01-19T12:16:18.869Z,5.29
2019-01-19T12:21:21.574Z,5.88
2019-01-19T12:26:43.750Z,6.79
2019-01-19T12:32:05.941Z,6.99
2019-01-19T12:37:28.115Z,7.00
2019-01-19T12:42:55.558Z,6.95
2019-01-19T12:48:17.741Z,6.90
2019-01-19T12:53:39.899Z,6.87
2019-01-19T12:59:02.102Z,6.78
2019-01-19T13:04:17.509Z,6.59
2019-01-19T13:10:01.998Z,6.76
2019-01-19T13:16:03.162Z,6.80
2019-01-19T13:22:04.361Z,6.86
2019-01-19T13:27:50.313Z,6.80
2019-01-19T13:33:45.808Z,5.73
2019-01-19T13:39:34.714Z,4.95
2019-01-19T13:45:38.927Z,6.35
2019-01-19T13:51:40.110Z,6.12
2019-01-19T13:57:28.856Z,5.32
2019-01-19T14:03:30.018Z,5.79
2019-01-19T14:09:04.563Z,5.75
2019-01-19T14:15:05.749Z,4.86
2019-01-19T14:21:07.310Z,5.63
2019-01-19T14:27:08.484Z,5.60
2019-01-19T14:32:41.137Z,5.46
2019-01-19T14:38:42.306Z,5.41
2019-01-19T14:44:43.485Z,5.24
2019-01-19T14:50:16.385Z,5.17
2019-01-19T14:56:07.822Z,5.02
2019-01-19T15:01:55.931Z,4.25
2019-01-19T15:07:19.253Z,4.89
2019-01-19T15:13:20.441Z,4.83
2019-01-19T15:19:21.706Z,4.51
2019-01-19T15:25:22.892Z,4.59
2019-01-19T15:31:24.062Z,4.44
2019-01-19T15:37:25.226Z,4.29
2019-01-19T15:43:26.462Z,4.04
2019-01-19T15:49:27.640Z,3.86
2019-01-19T15:55:28.851Z,0.99
2019-01-19T16:01:07.499Z,3.47
2019-01-19T16:07:08.676Z,3.41
2019-01-19T16:13:09.881Z,3.34
2019-01-19T16:18:55.934Z,3.17
2019-01-19T16:24:57.153Z,2.23
2019-01-19T16:30:58.337Z,1.48
2019-01-19T16:36:48.377Z,3.02
2019-01-19T16:42:37.160Z,3.01
2019-01-19T16:48:23.318Z,2.98
2019-01-19T16:54:10.321Z,2.95
2019-01-19T17:00:14.275Z,2.92
2019-01-19T17:05:49.194Z,2.55
2019-01-19T17:11:50.404Z,2.31
2019-01-19T17:17:51.564Z,2.69
2019-01-19T17:29:13.354Z,2.72
2019-01-19T17:35:00.334Z,2.64
2019-01-19T17:41:01.549Z,2.73
2019-01-19T17:47:02.782Z,2.62
2019-01-19T17:53:03.943Z,2.63
2019-01-19T17:59:05.121Z,2.65
2019-01-19T18:04:40.442Z,2.64
2019-01-19T18:10:41.623Z,2.57
2019-01-19T18:16:42.790Z,2.53
2019-01-19T18:22:47.081Z,1.84
2019-01-19T18:28:51.289Z,2.24
2019-01-19T18:34:52.483Z,0.29
2019-01-19T18:40:53.645Z,-0.42
2019-01-19T18:46:54.880Z,1.99
2019-01-19T18:52:56.115Z,1.97
2019-01-19T18:58:57.283Z,1.72
2019-01-19T19:04:31.978Z,0.84
2019-01-19T19:10:33.152Z,1.16
2019-01-19T19:16:34.418Z,2.09
2019-01-19T19:22:35.581Z,2.09
2019-01-19T19:28:23.387Z,2.14
2019-01-19T19:34:24.602Z,2.06
2019-01-19T19:40:25.765Z,2.00
2019-01-19T19:46:26.933Z,2.00
2019-01-19T19:52:08.646Z,1.99
2019-01-19T19:57:30.838Z,2.04
2019-01-19T20:02:53.216Z,1.97
2019-01-19T20:07:55.933Z,1.89
2019-01-19T20:13:18.108Z,1.91
2019-01-19T20:18:40.285Z,1.89
2019-01-19T20:24:02.564Z,1.97
2019-01-19T20:29:24.744Z,1.87
2019-01-19T20:34:27.446Z,0.17
2019-01-19T20:39:30.119Z,1.79
2019-01-19T20:44:32.804Z,1.79
2019-01-19T20:49:54.988Z,1.67
2019-01-19T20:54:57.662Z,0.81
2019-01-19T21:00:19.827Z,1.54
2019-01-19T21:05:35.127Z,-0.20
2019-01-19T21:10:57.311Z,1.39
2019-01-19T21:16:19.505Z,1.40
2019-01-19T21:21:41.688Z,1.52
2019-01-19T21:27:03.886Z,-0.51
2019-01-19T21:32:26.060Z,1.36
2019-01-19T21:37:48.258Z,0.53
2019-01-19T21:43:10.436Z,1.34
2019-01-19T21:48:32.623Z,1.47
2019-01-19T21:53:54.798Z,1.42
2019-01-19T21:59:16.987Z,-0.61
2019-01-19T22:04:32.456Z,1.47
2019-01-19T22:09:54.651Z,1.44
2019-01-19T22:15:17.156Z,1.40
2019-01-19T22:20:39.349Z,0.50
2019-01-19T22:26:01.525Z,1.43
2019-01-19T22:31:23.714Z,1.43
2019-01-19T22:36:45.892Z,-1.33
2019-01-19T22:42:08.108Z,1.36
2019-01-19T22:47:30.278Z,1.31
2019-01-19T22:52:52.452Z,-0.41
2019-01-19T22:58:14.655Z,1.23
2019-01-19T23:03:38.059Z,1.19
2019-01-19T23:08:53.291Z,-1.21
2019-01-19T23:19:49.650Z,1.14
2019-01-19T23:25:11.853Z,1.22
2019-01-19T23:30:34.131Z,1.02
2019-01-19T23:35:56.325Z,0.99
2019-01-19T23:41:18.501Z,-1.44
2019-01-19T23:46:40.666Z,1.09
2019-01-19T23:52:02.842Z,1.01
2019-01-19T23:57:25.008Z,0.98
